createdAt,value
2019-05-22T00:00:26.030Z,99818.92
2019-05-22T00:03:17.879Z,99809.35
2019-05-22T00:05:50.345Z,99814.72
2019-05-22T00:08:22.372Z,99816.91
2019-05-22T00:10:55.162Z,99810.36
2019-05-22T00:13:30.687Z,99817.41
2019-05-22T00:16:04.269Z,99813.39
2019-05-22T00:18:37.571Z,99809.02
2019-05-22T00:21:12.794Z,99811.03
2019-05-22T00:23:46.950Z,99811.53
2019-05-22T00:26:20.166Z,99808.34
2019-05-22T00:28:54.470Z,99808.52
2019-05-22T00:31:26.309Z,99800.28
2019-05-22T00:34:00.390Z,99806.00
2019-05-22T00:36:33.940Z,99806.34
2019-05-22T00:39:08.347Z,99806.67
2019-05-22T00:41:40.289Z,99810.05
2019-05-22T00:44:14.180Z,99806.02
2019-05-22T00:46:45.821Z,99815.12
2019-05-22T00:49:18.342Z,99809.08
2019-05-22T00:52:04.724Z,99807.56
2019-05-22T00:54:55.731Z,99811.09
2019-05-22T00:57:29.887Z,99814.08
2019-05-22T01:00:19.415Z,99818.99
2019-05-22T01:02:54.835Z,99822.02
2019-05-22T01:05:29.703Z,99816.14
2019-05-22T01:08:03.376Z,99803.21
2019-05-22T01:10:38.097Z,99805.73
2019-05-22T01:13:10.260Z,99815.48
2019-05-22T01:15:42.119Z,99806.75
2019-05-22T01:18:15.496Z,99810.83
2019-05-22T01:20:49.868Z,99816.38
2019-05-22T01:23:24.216Z,99811.68
2019-05-22T01:25:55.988Z,99817.23
2019-05-22T01:28:28.486Z,99812.74
2019-05-22T01:31:03.371Z,99812.91
2019-05-22T01:33:39.509Z,99822.00
2019-05-22T01:36:22.026Z,99822.17
2019-05-22T01:38:58.753Z,99824.06
2019-05-22T01:41:33.122Z,99826.08
2019-05-22T01:44:07.277Z,99830.12
2019-05-22T01:46:43.758Z,99829.95
2019-05-22T01:49:16.878Z,99832.14
2019-05-22T01:51:48.529Z,99839.20
2019-05-22T01:54:22.375Z,99833.53
2019-05-22T01:56:55.945Z,99831.52
2019-05-22T01:59:28.260Z,99834.55
2019-05-22T02:02:00.583Z,99833.87
2019-05-22T02:04:34.546Z,99837.92
2019-05-22T02:07:08.507Z,99838.29
2019-05-22T02:09:44.509Z,99834.09
2019-05-22T02:12:30.994Z,99834.59
2019-05-22T02:15:03.213Z,99836.45
2019-05-22T02:17:37.590Z,99838.00
2019-05-22T02:20:11.434Z,99840.36
2019-05-22T02:22:44.801Z,99844.39
2019-05-22T02:25:17.781Z,99841.53
2019-05-22T02:27:51.005Z,99840.36
2019-05-22T02:30:25.021Z,99836.83
2019-05-22T02:32:57.611Z,99829.97
2019-05-22T02:35:31.208Z,99834.48
2019-05-22T02:38:04.514Z,99830.95
2019-05-22T02:40:39.222Z,99827.24
2019-05-22T02:43:14.248Z,99832.45
2019-05-22T02:45:46.903Z,99828.22
2019-05-22T02:48:18.842Z,99831.07
2019-05-22T02:50:52.677Z,99832.75
2019-05-22T02:53:25.522Z,99840.86
2019-05-22T02:55:57.621Z,99840.69
2019-05-22T02:58:31.483Z,99848.39
2019-05-22T03:01:06.725Z,99856.63
2019-05-22T03:03:39.330Z,99863.52
2019-05-22T03:06:14.487Z,99863.00
2019-05-22T03:09:12.211Z,99863.47
2019-05-22T03:12:01.634Z,99869.22
2019-05-22T03:14:36.106Z,99859.94
2019-05-22T03:17:13.014Z,99859.27
2019-05-22T03:19:48.464Z,99864.48
2019-05-22T03:22:40.966Z,99858.59
2019-05-22T03:25:16.000Z,99854.72
2019-05-22T03:27:54.417Z,99857.91
2019-05-22T03:30:34.859Z,99857.69
2019-05-22T03:33:08.367Z,99862.23
2019-05-22T03:35:47.774Z,99864.63
2019-05-22T03:38:21.614Z,99870.34
2019-05-22T03:40:54.959Z,99872.82
2019-05-22T03:43:29.720Z,99880.21
2019-05-22T03:46:25.168Z,99890.62
2019-05-22T03:48:58.720Z,99881.20
2019-05-22T03:51:31.382Z,99888.59
2019-05-22T03:54:04.568Z,99887.09
2019-05-22T03:56:41.337Z,99896.27
2019-05-22T03:59:13.832Z,99891.05
2019-05-22T04:01:45.961Z,99891.38
2019-05-22T04:04:34.171Z,99893.18
2019-05-22T04:07:11.931Z,99891.66
2019-05-22T04:09:46.444Z,99889.98
2019-05-22T04:12:23.976Z,99897.92
2019-05-22T04:14:55.865Z,99896.74
2019-05-22T04:17:28.927Z,99897.72
2019-05-22T04:20:01.148Z,99901.57
2019-05-22T04:22:33.671Z,99908.61
2019-05-22T04:25:09.004Z,99908.59
2019-05-22T04:27:42.598Z,99907.59
2019-05-22T04:30:15.945Z,99909.59
2019-05-22T04:32:49.131Z,99915.60
2019-05-22T04:35:24.469Z,99915.66
2019-05-22T04:37:57.055Z,99910.95
2019-05-22T04:40:42.676Z,99913.97
2019-05-22T04:43:14.797Z,99919.63
2019-05-22T04:45:48.998Z,99918.63
2019-05-22T04:48:22.868Z,99911.78
2019-05-22T04:50:54.970Z,99910.80
2019-05-22T04:53:29.097Z,99911.96
2019-05-22T04:56:02.212Z,99911.91
2019-05-22T04:58:34.562Z,99917.84
2019-05-22T05:01:06.498Z,99915.33
2019-05-22T05:03:38.919Z,99916.66
2019-05-22T05:06:11.895Z,99918.34
2019-05-22T05:08:44.618Z,99927.41
2019-05-22T05:11:17.565Z,99923.72
2019-05-22T05:13:49.556Z,99934.47
2019-05-22T05:16:21.460Z,99932.57
2019-05-22T05:18:53.854Z,99931.78
2019-05-22T05:21:26.066Z,99928.11
2019-05-22T05:23:58.563Z,99925.06
2019-05-22T05:26:31.834Z,99928.11
2019-05-22T05:29:04.757Z,99933.37
2019-05-22T05:31:36.802Z,99927.24
2019-05-22T05:34:24.959Z,99927.78
2019-05-22T05:36:57.808Z,99931.31
2019-05-22T05:39:40.456Z,99939.54
2019-05-22T05:42:12.674Z,99945.42
2019-05-22T05:44:44.530Z,99946.77
2019-05-22T05:47:21.890Z,99948.75
2019-05-22T05:49:54.899Z,99955.52
2019-05-22T05:52:29.364Z,99951.54
2019-05-22T05:55:02.945Z,99955.22
2019-05-22T05:57:39.302Z,99945.48
2019-05-22T06:00:34.225Z,99949.52
2019-05-22T06:03:35.573Z,99955.64
2019-05-22T06:06:27.461Z,99955.75
2019-05-22T06:09:02.602Z,99960.44
2019-05-22T06:11:51.552Z,99963.63
2019-05-22T06:14:33.737Z,99957.75
2019-05-22T06:17:44.453Z,99962.98
2019-05-22T06:20:19.679Z,99956.98
2019-05-22T06:23:32.310Z,99958.96
2019-05-22T06:26:04.900Z,99959.00
2019-05-22T06:28:38.766Z,99962.87
2019-05-22T06:31:31.340Z,99962.55
2019-05-22T06:34:05.422Z,99964.72
2019-05-22T06:36:37.631Z,99966.56
2019-05-22T06:39:10.433Z,99957.50
2019-05-22T06:41:44.095Z,99962.52
2019-05-22T06:44:35.184Z,99970.94
2019-05-22T06:47:09.880Z,99967.99
2019-05-22T06:49:44.065Z,99967.94
2019-05-22T06:52:18.108Z,99970.86
2019-05-22T06:54:49.949Z,99969.75
2019-05-22T06:57:23.769Z,99972.59
2019-05-22T07:00:12.377Z,99975.97
2019-05-22T07:02:32.576Z,99977.08
2019-05-22T07:05:06.429Z,99979.24
2019-05-22T07:07:39.106Z,99982.97
2019-05-22T07:10:12.709Z,99985.91
2019-05-22T07:12:44.656Z,99984.23
2019-05-22T07:15:26.885Z,99983.28
2019-05-22T07:17:59.086Z,99990.12
2019-05-22T07:20:34.597Z,99988.77
2019-05-22T07:23:07.191Z,99997.02
2019-05-22T07:25:41.356Z,99997.41
2019-05-22T07:28:15.905Z,99995.73
2019-05-22T07:30:49.559Z,99999.78
2019-05-22T07:33:23.420Z,100002.73
2019-05-22T07:36:17.006Z,100007.78
2019-05-22T07:38:33.682Z,100006.10
2019-05-22T07:41:06.057Z,100014.85
2019-05-22T07:43:41.341Z,100011.16
2019-05-22T07:46:11.684Z,100017.25
2019-05-22T07:48:44.491Z,100011.82
2019-05-22T07:51:19.523Z,100009.45
2019-05-22T07:53:53.943Z,100011.16
2019-05-22T07:56:30.189Z,100017.28
2019-05-22T07:59:03.187Z,100012.63
2019-05-22T08:01:35.802Z,100016.27
2019-05-22T08:04:08.206Z,100019.20
2019-05-22T08:06:41.336Z,100022.95
2019-05-22T08:09:14.499Z,100022.67
2019-05-22T08:11:47.468Z,100020.36
2019-05-22T08:14:19.672Z,100020.06
2019-05-22T08:16:52.859Z,100027.30
2019-05-22T08:19:27.175Z,100012.35
2019-05-22T08:22:07.422Z,100024.84
2019-05-22T08:24:34.271Z,100024.40
2019-05-22T08:27:08.320Z,100022.20
2019-05-22T08:29:49.785Z,100028.81
2019-05-22T08:32:27.406Z,100030.50
2019-05-22T08:35:00.300Z,100046.03
2019-05-22T08:37:39.180Z,100037.61
2019-05-22T08:40:15.223Z,100043.97
2019-05-22T08:42:51.740Z,100044.31
2019-05-22T08:45:25.150Z,100045.31
2019-05-22T08:48:00.067Z,100061.44
2019-05-22T08:50:35.191Z,100056.63
2019-05-22T08:53:11.900Z,100058.64
2019-05-22T08:55:45.284Z,100070.81
2019-05-22T08:58:20.322Z,100068.67
2019-05-22T09:00:53.863Z,100074.95
2019-05-22T09:03:26.356Z,100066.58
2019-05-22T09:05:57.915Z,100066.63
2019-05-22T09:08:30.953Z,100069.74
2019-05-22T09:11:04.198Z,100076.67
2019-05-22T09:13:35.865Z,100075.16
2019-05-22T09:16:08.714Z,100079.86
2019-05-22T09:18:41.407Z,100083.76
2019-05-22T09:21:14.060Z,100091.52
2019-05-22T09:23:46.723Z,100089.50
2019-05-22T09:26:18.827Z,100091.29
2019-05-22T09:28:50.784Z,100088.31
2019-05-22T09:31:23.095Z,100093.36
2019-05-22T09:33:55.044Z,100094.33
2019-05-22T09:36:27.248Z,100097.80
2019-05-22T09:38:59.015Z,100101.68
2019-05-22T09:41:32.099Z,100099.70
2019-05-22T09:44:04.135Z,100098.75
2019-05-22T09:46:36.002Z,100105.41
2019-05-22T09:49:10.499Z,100096.27
2019-05-22T09:51:43.183Z,100108.47
2019-05-22T09:54:15.672Z,100116.96
2019-05-22T09:56:47.413Z,100114.32
2019-05-22T09:59:19.440Z,100120.86
2019-05-22T10:01:51.712Z,100123.09
2019-05-22T10:04:23.811Z,100125.63
2019-05-22T10:06:55.797Z,100122.42
2019-05-22T10:09:28.505Z,100130.35
2019-05-22T10:12:03.052Z,100136.25
2019-05-22T10:14:35.377Z,100133.95
2019-05-22T10:17:07.801Z,100140.77
2019-05-22T10:19:39.855Z,100140.40
2019-05-22T10:22:12.840Z,100146.64
2019-05-22T10:24:49.866Z,100146.42
2019-05-22T10:27:19.737Z,100156.05
2019-05-22T10:29:52.492Z,100147.72
2019-05-22T10:32:25.079Z,100150.13
2019-05-22T10:34:58.261Z,100153.51
2019-05-22T10:37:30.181Z,100153.13
2019-05-22T10:40:03.208Z,100155.80
2019-05-22T10:42:35.044Z,100153.28
2019-05-22T10:45:08.425Z,100157.70
2019-05-22T10:47:40.590Z,100165.16
2019-05-22T10:50:13.828Z,100162.95
2019-05-22T10:52:45.468Z,100166.61
2019-05-22T10:55:20.214Z,100171.38
2019-05-22T10:57:52.085Z,100163.10
2019-05-22T11:00:26.216Z,100162.80
2019-05-22T11:02:58.959Z,100160.47
2019-05-22T11:05:31.163Z,100170.38
2019-05-22T11:08:03.544Z,100166.77
2019-05-22T11:10:36.445Z,100163.88
2019-05-22T11:13:08.548Z,100171.58
2019-05-22T11:15:40.990Z,100162.39
2019-05-22T11:18:13.865Z,100159.66
2019-05-22T11:20:46.018Z,100168.05
2019-05-22T11:23:18.079Z,100163.67
2019-05-22T11:25:49.745Z,100165.13
2019-05-22T11:28:22.148Z,100165.11
2019-05-22T11:30:54.287Z,100158.30
2019-05-22T11:33:26.077Z,100150.48
2019-05-22T11:35:58.491Z,100157.59
2019-05-22T11:38:30.353Z,100158.20
2019-05-22T11:41:02.586Z,100164.27
2019-05-22T11:43:35.120Z,100169.37
2019-05-22T11:46:09.114Z,100178.96
2019-05-22T11:48:40.761Z,100179.39
2019-05-22T11:51:12.521Z,100177.19
2019-05-22T11:53:44.437Z,100177.39
2019-05-22T11:56:16.840Z,100185.06
2019-05-22T11:58:49.542Z,100181.25
2019-05-22T12:01:21.867Z,100190.09
2019-05-22T12:03:53.901Z,100190.18
2019-05-22T12:06:26.929Z,100195.45
2019-05-22T12:08:59.600Z,100187.80
2019-05-22T12:11:34.900Z,100188.33
2019-05-22T12:14:09.244Z,100191.63
2019-05-22T12:16:46.185Z,100192.02
2019-05-22T12:19:17.828Z,100191.55
2019-05-22T12:21:49.768Z,100189.99
2019-05-22T12:24:28.400Z,100200.48
2019-05-22T12:26:55.188Z,100199.09
2019-05-22T12:29:28.162Z,100191.26
2019-05-22T12:32:00.684Z,100189.80
2019-05-22T12:34:32.544Z,100194.71
2019-05-22T12:37:05.663Z,100195.74
2019-05-22T12:39:40.058Z,100197.03
2019-05-22T12:42:15.741Z,100195.02
2019-05-22T12:44:48.146Z,100203.03
2019-05-22T12:47:25.209Z,100191.34
2019-05-22T12:49:59.371Z,100204.18
2019-05-22T12:52:31.678Z,100204.17
2019-05-22T12:55:09.035Z,100200.66
2019-05-22T12:57:41.685Z,100211.20
2019-05-22T13:00:14.751Z,100206.97
2019-05-22T13:02:47.972Z,100204.89
2019-05-22T13:05:20.066Z,100205.28
2019-05-22T13:07:53.372Z,100193.20
2019-05-22T13:10:27.298Z,100202.16
2019-05-22T13:12:59.941Z,100194.19
2019-05-22T13:15:33.792Z,100195.63
2019-05-22T13:18:08.459Z,100186.47
2019-05-22T13:20:45.027Z,100184.31
2019-05-22T13:23:18.401Z,100184.57
2019-05-22T13:25:50.635Z,100186.00
2019-05-22T13:28:25.825Z,100189.66
2019-05-22T13:30:58.530Z,100180.55
2019-05-22T13:33:31.851Z,100186.52
2019-05-22T13:36:05.089Z,100187.22
2019-05-22T13:38:37.086Z,100200.16
2019-05-22T13:41:10.040Z,100199.09
2019-05-22T13:43:42.458Z,100203.98
2019-05-22T13:46:15.732Z,100193.33
2019-05-22T13:48:47.578Z,100194.22
2019-05-22T13:51:20.930Z,100198.81
2019-05-22T13:53:54.326Z,100205.30
2019-05-22T13:56:27.370Z,100205.95
2019-05-22T13:58:59.560Z,100210.51
2019-05-22T14:01:32.045Z,100209.58
2019-05-22T14:04:03.991Z,100214.49
2019-05-22T14:06:37.245Z,100213.98
2019-05-22T14:09:13.673Z,100220.92
2019-05-22T14:11:47.015Z,100215.72
2019-05-22T14:14:20.557Z,100220.63
2019-05-22T14:16:53.823Z,100218.62
2019-05-22T14:19:25.561Z,100230.55
2019-05-22T14:21:57.716Z,100228.41
2019-05-22T14:24:31.640Z,100228.05
2019-05-22T14:27:06.066Z,100234.92
2019-05-22T14:29:44.164Z,100229.19
2019-05-22T14:32:17.153Z,100228.70
2019-05-22T14:34:49.250Z,100235.48
2019-05-22T14:37:22.088Z,100236.20
2019-05-22T14:39:54.393Z,100234.81
2019-05-22T14:42:30.165Z,100232.15
2019-05-22T14:45:03.595Z,100236.20
2019-05-22T14:47:41.723Z,100237.55
2019-05-22T14:50:25.899Z,100242.41
2019-05-22T14:52:55.575Z,100244.09
2019-05-22T14:55:30.081Z,100245.91
2019-05-22T14:58:07.234Z,100246.58
2019-05-22T15:00:42.143Z,100246.27
2019-05-22T15:03:18.003Z,100242.89
2019-05-22T15:05:50.124Z,100238.51
2019-05-22T15:08:24.452Z,100249.58
2019-05-22T15:10:58.841Z,100253.45
2019-05-22T15:13:30.862Z,100264.25
2019-05-22T15:16:02.562Z,100259.06
2019-05-22T15:18:37.817Z,100265.39
2019-05-22T15:21:11.424Z,100270.06
2019-05-22T15:23:44.970Z,100268.49
2019-05-22T15:26:17.268Z,100264.73
2019-05-22T15:28:49.096Z,100258.05
2019-05-22T15:31:20.851Z,100277.14
2019-05-22T15:33:52.960Z,100271.92
2019-05-22T15:36:25.628Z,100286.01
2019-05-22T15:38:59.830Z,100291.23
2019-05-22T15:41:34.090Z,100294.25
2019-05-22T15:44:06.960Z,100296.92
2019-05-22T15:46:40.357Z,100287.95
2019-05-22T15:49:15.505Z,100287.16
2019-05-22T15:51:50.715Z,100298.77
2019-05-22T15:54:25.527Z,100289.48
2019-05-22T15:57:00.392Z,100289.76
2019-05-22T15:59:35.827Z,100291.34
2019-05-22T16:02:15.141Z,100301.59
2019-05-22T16:04:48.868Z,100296.98
2019-05-22T16:07:22.541Z,100303.75
2019-05-22T16:09:54.361Z,100299.10
2019-05-22T16:12:28.995Z,100311.62
2019-05-22T16:15:02.394Z,100314.08
2019-05-22T16:17:37.161Z,100308.00
2019-05-22T16:20:11.475Z,100303.77
2019-05-22T16:22:45.572Z,100302.59
2019-05-22T16:25:18.843Z,100304.58
2019-05-22T16:27:52.501Z,100297.02
2019-05-22T16:30:26.383Z,100290.64
2019-05-22T16:33:00.867Z,100293.59
2019-05-22T16:35:33.054Z,100302.61
2019-05-22T16:38:05.360Z,100302.22
2019-05-22T16:40:39.893Z,100289.35
2019-05-22T16:43:13.137Z,100285.54
2019-05-22T16:45:46.366Z,100279.47
2019-05-22T16:48:28.617Z,100283.12
2019-05-22T16:50:53.948Z,100299.06
2019-05-22T16:53:27.829Z,100295.97
2019-05-22T16:56:00.948Z,100298.92
2019-05-22T16:58:36.393Z,100288.18
2019-05-22T17:01:10.211Z,100278.88
2019-05-22T17:03:44.247Z,100287.13
2019-05-22T17:06:16.890Z,100297.53
2019-05-22T17:08:51.366Z,100307.77
2019-05-22T17:11:23.397Z,100309.12
2019-05-22T17:13:59.422Z,100321.41
2019-05-22T17:16:33.789Z,100324.59
2019-05-22T17:19:25.679Z,100318.02
2019-05-22T17:21:43.401Z,100328.86
2019-05-22T17:24:15.255Z,100336.42
2019-05-22T17:26:48.105Z,100333.15
2019-05-22T17:29:23.855Z,100336.77
2019-05-22T17:31:56.302Z,100340.66
2019-05-22T17:34:38.600Z,100344.63
2019-05-22T17:37:14.528Z,100340.30
2019-05-22T17:39:49.590Z,100347.66
2019-05-22T17:42:25.139Z,100342.84
2019-05-22T17:44:59.683Z,100342.84
2019-05-22T17:47:32.494Z,100345.81
2019-05-22T17:50:23.619Z,100343.77
2019-05-22T17:52:42.658Z,100345.11
2019-05-22T17:55:20.740Z,100345.46
2019-05-22T17:57:52.742Z,100339.88
2019-05-22T18:00:33.811Z,100339.53
2019-05-22T18:03:09.628Z,100343.61
2019-05-22T18:05:44.603Z,100342.97
2019-05-22T18:08:18.203Z,100351.40
2019-05-22T18:10:51.056Z,100366.41
2019-05-22T18:13:24.888Z,100379.28
2019-05-22T18:15:57.630Z,100391.36
2019-05-22T18:18:30.246Z,100394.25
2019-05-22T18:21:04.591Z,100402.58
2019-05-22T18:23:36.530Z,100410.78
2019-05-22T18:26:10.061Z,100413.75
2019-05-22T18:28:42.114Z,100414.59
2019-05-22T18:31:14.273Z,100430.09
2019-05-22T18:33:49.732Z,100422.55
2019-05-22T18:36:24.490Z,100430.37
2019-05-22T18:38:56.713Z,100430.73
2019-05-22T18:41:31.030Z,100439.28
2019-05-22T18:44:03.007Z,100442.24
2019-05-22T18:46:37.345Z,100444.72
2019-05-22T18:49:09.334Z,100456.08
2019-05-22T18:51:44.370Z,100459.36
2019-05-22T18:54:19.192Z,100461.70
2019-05-22T18:56:51.515Z,100462.05
2019-05-22T18:59:24.060Z,100467.91
2019-05-22T19:01:56.838Z,100473.41
2019-05-22T19:04:31.297Z,100474.13
2019-05-22T19:07:04.728Z,100477.93
2019-05-22T19:09:38.637Z,100485.41
2019-05-22T19:12:11.033Z,100498.19
2019-05-22T19:14:44.417Z,100495.08
2019-05-22T19:17:18.675Z,100504.47
2019-05-22T19:19:51.698Z,100512.16
2019-05-22T19:22:27.063Z,100511.06
2019-05-22T19:24:59.122Z,100525.81
2019-05-22T19:27:31.335Z,100524.75
2019-05-22T19:30:05.794Z,100519.24
2019-05-22T19:32:38.540Z,100524.03
2019-05-22T19:35:11.287Z,100530.66
2019-05-22T19:37:44.307Z,100539.42
2019-05-22T19:40:17.786Z,100538.92
2019-05-22T19:42:51.269Z,100542.67
2019-05-22T19:45:25.076Z,100544.87
2019-05-22T19:47:58.870Z,100545.91
2019-05-22T19:50:33.346Z,100556.21
2019-05-22T19:53:18.571Z,100554.80
2019-05-22T19:55:48.001Z,100559.66
2019-05-22T19:58:22.451Z,100558.86
2019-05-22T20:00:56.385Z,100558.24
2019-05-22T20:03:33.929Z,100556.77
2019-05-22T20:06:09.511Z,100563.12
2019-05-22T20:08:45.670Z,100564.73
2019-05-22T20:11:18.926Z,100561.42
2019-05-22T20:13:50.671Z,100570.09
2019-05-22T20:16:22.418Z,100572.55
2019-05-22T20:18:59.728Z,100564.77
2019-05-22T20:21:39.634Z,100575.63
2019-05-22T20:24:12.043Z,100575.78
2019-05-22T20:26:46.002Z,100585.87
2019-05-22T20:29:20.892Z,100577.73
2019-05-22T20:31:52.994Z,100584.45
2019-05-22T20:34:26.952Z,100581.05
2019-05-22T20:37:05.189Z,100589.68
2019-05-22T20:39:40.457Z,100578.59
2019-05-22T20:42:13.346Z,100586.05
2019-05-22T20:44:45.452Z,100583.77
2019-05-22T20:47:20.907Z,100583.64
2019-05-22T20:49:57.735Z,100584.75
2019-05-22T20:52:32.114Z,100579.53
2019-05-22T20:55:07.186Z,100585.16
2019-05-22T20:57:43.841Z,100582.11
2019-05-22T21:00:18.362Z,100592.34
2019-05-22T21:02:55.114Z,100590.38
2019-05-22T21:05:31.247Z,100594.30
2019-05-22T21:08:10.602Z,100589.44
2019-05-22T21:10:49.787Z,100592.02
2019-05-22T21:13:21.800Z,100593.84
2019-05-22T21:15:54.984Z,100599.70
2019-05-22T21:18:30.843Z,100597.50
2019-05-22T21:21:04.307Z,100598.97
2019-05-22T21:23:38.219Z,100597.27
2019-05-22T21:26:11.394Z,100597.27
2019-05-22T21:28:43.579Z,100598.61
2019-05-22T21:31:17.601Z,100596.55
2019-05-22T21:33:51.180Z,100604.33
2019-05-22T21:36:23.889Z,100603.25
2019-05-22T21:38:56.588Z,100616.16
2019-05-22T21:41:30.153Z,100617.11
2019-05-22T21:44:02.183Z,100622.23
2019-05-22T21:46:36.153Z,100628.70
2019-05-22T21:49:09.147Z,100624.19
2019-05-22T21:51:41.496Z,100623.72
2019-05-22T21:54:13.878Z,100626.63
2019-05-22T21:56:45.786Z,100627.86
2019-05-22T21:59:18.309Z,100631.17
2019-05-22T22:01:51.949Z,100631.03
2019-05-22T22:04:30.360Z,100635.17
2019-05-22T22:07:03.077Z,100640.03
2019-05-22T22:09:35.753Z,100628.84
2019-05-22T22:12:09.488Z,100638.47
2019-05-22T22:14:41.697Z,100644.66
2019-05-22T22:17:15.078Z,100637.85
2019-05-22T22:19:47.274Z,100640.66
2019-05-22T22:22:27.148Z,100639.55
2019-05-22T22:24:59.054Z,100650.63
2019-05-22T22:27:31.319Z,100641.87
2019-05-22T22:30:05.668Z,100650.52
2019-05-22T22:32:37.790Z,100650.75
2019-05-22T22:35:13.387Z,100656.23
2019-05-22T22:37:46.618Z,100654.87
2019-05-22T22:40:23.916Z,100660.81
2019-05-22T22:42:55.822Z,100651.81
2019-05-22T22:45:39.126Z,100654.61
2019-05-22T22:48:13.043Z,100655.09
2019-05-22T22:50:46.597Z,100654.73
2019-05-22T22:53:20.477Z,100653.40
2019-05-22T22:55:53.493Z,100659.11
2019-05-22T22:58:25.399Z,100654.48
2019-05-22T23:00:58.898Z,100657.77
2019-05-22T23:03:31.906Z,100656.77
2019-05-22T23:06:06.675Z,100659.94
2019-05-22T23:08:40.896Z,100662.12
2019-05-22T23:11:15.835Z,100660.79
2019-05-22T23:13:49.646Z,100663.86
2019-05-22T23:16:23.900Z,100666.99
2019-05-22T23:19:18.376Z,100660.55
2019-05-22T23:21:49.034Z,100662.73
2019-05-22T23:24:21.281Z,100659.94
2019-05-22T23:26:54.299Z,100664.20
2019-05-22T23:29:28.431Z,100674.30
2019-05-22T23:32:00.817Z,100664.09
2019-05-22T23:34:32.912Z,100672.72
2019-05-22T23:37:06.161Z,100672.11
2019-05-22T23:39:39.689Z,100671.86
2019-05-22T23:42:16.420Z,100672.72
2019-05-22T23:44:49.770Z,100667.83
2019-05-22T23:47:21.854Z,100665.88
2019-05-22T23:49:54.534Z,100672.57
2019-05-22T23:52:26.919Z,100675.25
2019-05-22T23:54:59.593Z,100664.55
2019-05-22T23:57:32.208Z,100664.18
